createdAt,value
2018-05-07T00:02:26.097Z,13.40
2018-05-07T00:04:54.394Z,13.20
2018-05-07T00:07:22.663Z,13.20
2018-05-07T00:09:50.979Z,13.20
2018-05-07T00:12:18.466Z,13.20
2018-05-07T00:14:46.006Z,13.20
2018-05-07T00:17:13.502Z,13.20
2018-05-07T00:19:41.810Z,13.00
2018-05-07T00:22:09.330Z,13.00
2018-05-07T00:24:36.802Z,12.90
2018-05-07T00:27:04.339Z,12.90
2018-05-07T00:29:31.871Z,12.90
2018-05-07T00:31:59.367Z,12.90
2018-05-07T00:34:26.883Z,12.90
2018-05-07T00:36:54.375Z,12.90
2018-05-07T00:39:21.909Z,12.90
2018-05-07T00:41:49.409Z,12.90
2018-05-07T00:44:16.931Z,12.80
2018-05-07T00:46:44.434Z,12.80
2018-05-07T00:49:12.727Z,12.70
2018-05-07T00:51:40.454Z,12.70
2018-05-07T00:54:08.798Z,12.70
2018-05-07T00:56:36.287Z,12.60
2018-05-07T00:59:03.782Z,12.60
2018-05-07T01:01:31.331Z,12.60
2018-05-07T01:03:58.828Z,12.50
2018-05-07T01:06:27.103Z,12.50
2018-05-07T01:08:54.591Z,12.40
2018-05-07T01:11:22.890Z,12.40
2018-05-07T01:13:51.148Z,12.40
2018-05-07T01:16:18.740Z,12.40
2018-05-07T01:18:46.235Z,12.40
2018-05-07T01:21:13.762Z,12.40
2018-05-07T01:23:41.298Z,12.40
2018-05-07T01:26:08.826Z,12.40
2018-05-07T01:28:36.344Z,12.40
2018-05-07T01:31:03.872Z,12.40
2018-05-07T01:33:31.378Z,12.30
2018-05-07T01:35:58.907Z,12.30
2018-05-07T01:38:27.161Z,12.20
2018-05-07T01:40:54.690Z,12.20
2018-05-07T01:43:22.194Z,12.20
2018-05-07T01:45:49.721Z,12.10
2018-05-07T01:48:17.210Z,12.10
2018-05-07T01:50:45.500Z,12.00
2018-05-07T01:53:12.984Z,12.00
2018-05-07T01:55:40.506Z,12.00
2018-05-07T01:58:08.040Z,11.90
2018-05-07T02:00:35.550Z,11.80
2018-05-07T02:03:03.090Z,11.80
2018-05-07T02:05:30.582Z,11.70
2018-05-07T02:07:58.083Z,11.70
2018-05-07T02:10:26.394Z,11.70
2018-05-07T02:12:53.887Z,11.70
2018-05-07T02:15:21.465Z,11.70
2018-05-07T02:17:48.969Z,11.70
2018-05-07T02:20:16.607Z,11.80
2018-05-07T02:22:44.857Z,11.70
2018-05-07T02:25:12.414Z,11.60
2018-05-07T02:27:40.143Z,11.70
2018-05-07T02:30:07.696Z,11.60
2018-05-07T02:32:35.198Z,11.70
2018-05-07T02:35:02.738Z,11.70
2018-05-07T02:37:30.239Z,11.60
2018-05-07T02:39:58.537Z,11.50
2018-05-07T02:42:26.030Z,11.50
2018-05-07T02:44:53.528Z,11.50
2018-05-07T02:47:21.066Z,11.50
2018-05-07T02:49:48.555Z,11.40
2018-05-07T02:52:16.861Z,11.40
2018-05-07T02:54:44.359Z,11.40
2018-05-07T02:57:13.391Z,11.30
2018-05-07T02:59:40.908Z,11.30
2018-05-07T03:02:08.430Z,11.40
2018-05-07T03:04:36.029Z,11.30
2018-05-07T03:07:03.550Z,11.30
2018-05-07T03:09:31.135Z,11.30
2018-05-07T03:11:58.673Z,11.30
2018-05-07T03:14:26.179Z,11.30
2018-05-07T03:16:53.884Z,11.20
2018-05-07T03:19:21.374Z,11.20
2018-05-07T03:21:48.861Z,11.20
2018-05-07T03:24:16.395Z,11.20
2018-05-07T03:26:43.885Z,11.20
2018-05-07T03:29:12.174Z,11.10
2018-05-07T03:31:39.671Z,11.10
2018-05-07T03:34:07.196Z,11.10
2018-05-07T03:36:34.685Z,11.10
2018-05-07T03:39:02.208Z,11.10
2018-05-07T03:41:30.468Z,11.00
2018-05-07T03:43:58.780Z,11.00
2018-05-07T03:46:26.606Z,11.00
2018-05-07T03:48:54.908Z,11.10
2018-05-07T03:51:22.403Z,11.00
2018-05-07T03:53:49.933Z,11.10
2018-05-07T03:56:17.490Z,11.20
2018-05-07T03:58:45.099Z,11.20
2018-05-07T04:01:12.591Z,11.30
2018-05-07T04:03:40.149Z,11.40
2018-05-07T04:06:08.803Z,11.50
2018-05-07T04:08:37.842Z,11.70
2018-05-07T04:11:05.424Z,11.70
2018-05-07T04:13:33.268Z,11.80
2018-05-07T04:16:00.811Z,11.90
2018-05-07T04:18:40.912Z,12.20
2018-05-07T04:21:14.782Z,12.20
2018-05-07T04:23:54.819Z,12.40
2018-05-07T04:26:22.310Z,12.40
2018-05-07T04:28:49.823Z,12.60
2018-05-07T04:31:17.354Z,12.70
2018-05-07T04:33:44.872Z,12.90
2018-05-07T04:36:12.389Z,12.90
2018-05-07T04:38:39.895Z,13.10
2018-05-07T04:41:07.491Z,13.20
2018-05-07T04:43:34.996Z,13.30
2018-05-07T04:46:03.342Z,13.60
2018-05-07T04:48:30.843Z,13.60
2018-05-07T04:50:58.520Z,13.60
2018-05-07T04:53:26.013Z,13.70
2018-05-07T04:55:53.544Z,13.80
2018-05-07T04:58:21.035Z,13.90
2018-05-07T05:00:48.569Z,14.00
2018-05-07T05:03:16.080Z,14.10
2018-05-07T05:05:44.440Z,14.30
2018-05-07T05:08:11.915Z,14.30
2018-05-07T05:10:39.477Z,14.40
2018-05-07T05:13:07.758Z,14.50
2018-05-07T05:15:36.071Z,14.60
2018-05-07T05:18:03.563Z,14.60
2018-05-07T05:20:31.054Z,14.70
2018-05-07T05:22:58.594Z,14.80
2018-05-07T05:25:26.083Z,14.80
2018-05-07T05:27:53.615Z,14.80
2018-05-07T05:30:21.196Z,14.90
2018-05-07T05:32:48.671Z,15.00
2018-05-07T05:35:16.202Z,15.00
2018-05-07T05:37:43.735Z,15.10
2018-05-07T05:40:11.274Z,15.20
2018-05-07T05:42:38.766Z,15.20
2018-05-07T05:45:06.324Z,15.30
2018-05-07T05:47:34.577Z,15.30
2018-05-07T05:50:02.345Z,15.40
2018-05-07T05:52:30.012Z,15.40
2018-05-07T05:54:57.558Z,15.50
2018-05-07T05:57:25.053Z,15.50
2018-05-07T05:59:53.642Z,15.70
2018-05-07T06:02:21.134Z,15.70
2018-05-07T06:04:48.628Z,15.80
2018-05-07T06:07:16.165Z,15.80
2018-05-07T06:09:43.882Z,15.90
2018-05-07T06:12:11.382Z,15.90
2018-05-07T06:14:39.035Z,16.00
2018-05-07T06:17:07.270Z,16.10
2018-05-07T06:19:34.762Z,16.10
2018-05-07T06:22:02.287Z,16.20
2018-05-07T06:24:30.546Z,16.30
2018-05-07T06:26:58.846Z,16.40
2018-05-07T06:29:26.366Z,16.40
2018-05-07T06:31:53.904Z,16.60
2018-05-07T06:34:21.472Z,16.60
2018-05-07T06:36:49.733Z,16.80
2018-05-07T06:39:17.229Z,16.70
2018-05-07T06:41:46.264Z,16.90
2018-05-07T06:44:13.774Z,16.90
2018-05-07T06:46:41.306Z,17.00
2018-05-07T06:49:08.818Z,17.00
2018-05-07T06:51:37.118Z,17.20
2018-05-07T06:54:04.616Z,17.20
2018-05-07T06:56:32.150Z,17.30
2018-05-07T06:58:59.659Z,17.40
2018-05-07T07:01:27.971Z,17.60
2018-05-07T07:03:55.465Z,17.50
2018-05-07T07:06:23.000Z,17.70
2018-05-07T07:08:50.503Z,17.80
2018-05-07T07:11:18.048Z,17.90
2018-05-07T07:13:45.554Z,17.90
2018-05-07T07:16:13.207Z,18.00
2018-05-07T07:18:40.708Z,18.10
2018-05-07T07:21:08.242Z,18.20
2018-05-07T07:23:35.735Z,18.30
2018-05-07T07:26:03.290Z,18.30
2018-05-07T07:28:30.779Z,18.50
2018-05-07T07:30:59.105Z,18.60
2018-05-07T07:33:26.601Z,18.60
2018-05-07T07:35:54.315Z,18.70
2018-05-07T07:38:21.813Z,18.80
2018-05-07T07:40:49.317Z,18.90
2018-05-07T07:43:17.622Z,19.10
2018-05-07T07:45:45.126Z,19.10
2018-05-07T07:48:12.679Z,19.20
2018-05-07T07:50:40.175Z,19.30
2018-05-07T07:53:07.711Z,19.30
2018-05-07T07:55:35.216Z,19.40
2018-05-07T07:58:02.747Z,19.50
2018-05-07T08:00:31.016Z,19.60
2018-05-07T08:02:59.334Z,19.70
2018-05-07T08:05:26.822Z,19.70
2018-05-07T08:07:55.853Z,19.90
2018-05-07T08:10:24.134Z,20.00
2018-05-07T08:12:52.435Z,20.00
2018-05-07T08:15:19.931Z,20.10
2018-05-07T08:17:47.487Z,20.10
2018-05-07T08:20:14.982Z,20.20
2018-05-07T08:22:43.281Z,20.40
2018-05-07T08:25:10.769Z,20.40
2018-05-07T08:27:38.486Z,20.40
2018-05-07T08:30:05.977Z,20.60
2018-05-07T08:32:33.479Z,20.60
2018-05-07T08:35:01.794Z,20.80
2018-05-07T08:37:29.364Z,20.70
2018-05-07T08:39:56.963Z,20.80
2018-05-07T08:42:26.046Z,20.90
2018-05-07T08:44:53.631Z,20.90
2018-05-07T08:47:21.169Z,21.00
2018-05-07T08:49:50.186Z,21.10
2018-05-07T08:52:18.571Z,21.10
2018-05-07T08:54:46.066Z,21.10
2018-05-07T08:57:13.626Z,21.20
2018-05-07T08:59:41.177Z,21.30
2018-05-07T09:02:08.746Z,21.40
2018-05-07T09:04:36.230Z,21.50
2018-05-07T09:07:04.547Z,21.50
2018-05-07T09:09:32.046Z,21.50
2018-05-07T09:11:59.582Z,21.50
2018-05-07T09:14:27.079Z,21.60
2018-05-07T09:16:54.650Z,21.60
2018-05-07T09:19:22.906Z,21.70
2018-05-07T09:21:50.439Z,21.60
2018-05-07T09:24:17.936Z,21.60
2018-05-07T09:26:45.483Z,21.70
2018-05-07T09:29:13.018Z,21.70
2018-05-07T09:31:40.556Z,21.80
2018-05-07T09:34:08.064Z,21.90
2018-05-07T09:36:35.608Z,22.00
2018-05-07T09:39:03.098Z,22.00
2018-05-07T09:41:30.668Z,22.00
2018-05-07T09:43:58.939Z,22.00
2018-05-07T09:46:27.208Z,22.00
2018-05-07T09:48:55.547Z,22.00
2018-05-07T09:51:23.778Z,22.00
2018-05-07T09:53:52.047Z,22.10
2018-05-07T09:56:19.589Z,22.10
2018-05-07T09:58:56.988Z,22.10
2018-05-07T10:01:24.530Z,22.10
2018-05-07T10:03:52.045Z,22.20
2018-05-07T10:06:19.602Z,22.20
2018-05-07T10:08:47.108Z,22.10
2018-05-07T10:11:14.609Z,22.10
2018-05-07T10:13:42.735Z,22.10
2018-05-07T10:16:10.230Z,22.10
2018-05-07T10:18:38.529Z,22.10
2018-05-07T10:21:06.029Z,22.10
2018-05-07T10:23:33.612Z,22.10
2018-05-07T10:26:01.077Z,22.10
2018-05-07T10:28:28.623Z,22.10
2018-05-07T10:30:56.211Z,22.00
2018-05-07T10:33:24.528Z,22.00
2018-05-07T10:35:52.023Z,22.00
2018-05-07T10:38:21.083Z,22.00
2018-05-07T10:40:48.574Z,22.00
2018-05-07T10:43:17.627Z,22.00
2018-05-07T10:45:45.127Z,22.00
2018-05-07T10:48:12.672Z,22.00
2018-05-07T10:50:40.169Z,22.00
2018-05-07T10:53:08.489Z,21.90
2018-05-07T10:55:35.982Z,21.90
2018-05-07T10:58:03.513Z,21.90
2018-05-07T11:00:31.065Z,21.90
2018-05-07T11:02:58.576Z,21.80
2018-05-07T11:05:26.176Z,21.80
2018-05-07T11:07:53.697Z,21.80
2018-05-07T11:10:21.232Z,21.70
2018-05-07T11:12:48.749Z,21.70
2018-05-07T11:15:16.300Z,21.70
2018-05-07T11:17:43.815Z,21.60
2018-05-07T11:20:11.355Z,21.60
2018-05-07T11:22:38.911Z,21.50
2018-05-07T11:25:06.410Z,21.50
2018-05-07T11:27:34.714Z,21.50
2018-05-07T11:30:02.216Z,21.50
2018-05-07T11:32:29.777Z,21.50
2018-05-07T11:34:57.290Z,21.50
2018-05-07T11:37:24.834Z,21.50
2018-05-07T11:39:52.326Z,21.50
2018-05-07T11:42:19.875Z,21.50
2018-05-07T11:44:47.367Z,21.50
2018-05-07T11:47:14.910Z,21.50
2018-05-07T11:49:42.424Z,21.40
2018-05-07T11:52:09.959Z,21.40
2018-05-07T11:54:37.468Z,21.40
2018-05-07T11:57:05.024Z,21.30
2018-05-07T11:59:32.529Z,21.30
2018-05-07T12:02:00.062Z,21.20
2018-05-07T12:04:27.564Z,21.20
2018-05-07T12:06:55.885Z,21.10
2018-05-07T12:09:23.383Z,21.10
2018-05-07T12:11:50.882Z,21.10
2018-05-07T12:14:18.414Z,21.00
2018-05-07T12:16:46.740Z,21.00
2018-05-07T12:19:14.388Z,21.00
2018-05-07T12:21:41.887Z,21.10
2018-05-07T12:24:09.442Z,21.10
2018-05-07T12:26:36.944Z,21.10
2018-05-07T12:29:04.510Z,21.10
2018-05-07T12:31:32.110Z,21.10
2018-05-07T12:33:59.562Z,21.10
2018-05-07T12:36:27.071Z,21.10
2018-05-07T12:38:55.389Z,21.10
2018-05-07T12:41:22.909Z,21.10
2018-05-07T12:43:51.348Z,21.10
2018-05-07T12:46:18.900Z,21.10
2018-05-07T12:48:46.451Z,21.20
2018-05-07T12:51:13.993Z,21.50
2018-05-07T12:53:41.496Z,21.90
2018-05-07T12:56:09.257Z,22.40
2018-05-07T12:58:37.505Z,23.70
2018-05-07T13:01:05.076Z,23.70
2018-05-07T13:03:32.567Z,24.70
2018-05-07T13:06:00.131Z,25.70
2018-05-07T13:08:28.394Z,27.00
2018-05-07T13:10:55.931Z,27.00
2018-05-07T13:13:23.461Z,27.70
2018-05-07T13:15:50.991Z,28.20
2018-05-07T13:18:19.254Z,29.30
2018-05-07T13:20:46.787Z,29.20
2018-05-07T13:23:14.287Z,29.70
2018-05-07T13:25:42.589Z,30.60
2018-05-07T13:28:10.087Z,30.50
2018-05-07T13:30:37.641Z,31.10
2018-05-07T13:33:05.130Z,31.60
2018-05-07T13:35:33.382Z,32.60
2018-05-07T13:38:00.919Z,32.50
2018-05-07T13:40:28.427Z,33.10
2018-05-07T13:42:56.730Z,33.90
2018-05-07T13:45:24.239Z,33.80
2018-05-07T13:47:53.278Z,34.70
2018-05-07T13:50:20.779Z,34.70
2018-05-07T13:52:48.309Z,35.30
2018-05-07T13:55:15.956Z,35.60
2018-05-07T13:57:43.507Z,36.00
2018-05-07T14:00:11.758Z,36.50
2018-05-07T14:02:39.341Z,36.50
2018-05-07T14:05:06.819Z,36.90
2018-05-07T14:07:34.303Z,37.00
2018-05-07T14:10:01.839Z,37.30
2018-05-07T14:12:29.338Z,37.50
2018-05-07T14:14:56.878Z,37.60
2018-05-07T14:17:24.376Z,37.60
2018-05-07T14:19:52.689Z,37.80
2018-05-07T14:22:20.186Z,37.80
2018-05-07T14:24:47.716Z,37.00
2018-05-07T14:27:15.220Z,35.70
2018-05-07T14:29:43.059Z,35.30
2018-05-07T14:32:10.637Z,33.60
2018-05-07T14:34:38.140Z,32.40
2018-05-07T14:37:05.677Z,31.20
2018-05-07T14:39:34.100Z,29.50
2018-05-07T14:42:01.785Z,29.30
2018-05-07T14:44:29.299Z,28.70
2018-05-07T14:46:56.843Z,28.00
2018-05-07T14:49:24.351Z,27.50
2018-05-07T14:51:51.928Z,27.10
2018-05-07T14:54:19.595Z,26.60
2018-05-07T14:56:47.123Z,26.40
2018-05-07T14:59:14.611Z,26.10
2018-05-07T15:01:42.149Z,26.20
2018-05-07T15:04:09.845Z,26.60
2018-05-07T15:06:38.142Z,26.90
2018-05-07T15:09:05.681Z,26.90
2018-05-07T15:11:33.982Z,28.50
2018-05-07T15:14:13.382Z,28.50
2018-05-07T15:16:42.537Z,31.30
2018-05-07T15:19:10.134Z,31.30
2018-05-07T15:21:37.687Z,32.20
2018-05-07T15:24:05.214Z,33.70
2018-05-07T15:26:32.959Z,34.70
2018-05-07T15:29:00.452Z,35.60
2018-05-07T15:31:28.102Z,36.60
2018-05-07T15:33:55.632Z,37.30
2018-05-07T15:36:23.972Z,38.10
2018-05-07T15:38:51.451Z,38.10
2018-05-07T15:41:19.037Z,38.50
2018-05-07T15:43:46.641Z,39.20
2018-05-07T15:46:14.099Z,39.60
2018-05-07T15:48:41.926Z,40.10
2018-05-07T15:51:09.421Z,40.50
2018-05-07T15:53:36.958Z,40.80
2018-05-07T15:56:04.526Z,41.00
2018-05-07T15:58:32.056Z,41.20
2018-05-07T16:00:59.589Z,41.30
2018-05-07T16:03:27.130Z,41.30
2018-05-07T16:05:54.623Z,41.50
2018-05-07T16:08:22.975Z,41.90
2018-05-07T16:10:50.481Z,41.90
2018-05-07T16:13:18.071Z,41.90
2018-05-07T16:15:45.578Z,41.60
2018-05-07T16:18:13.128Z,39.20
2018-05-07T16:20:41.480Z,34.90
2018-05-07T16:23:09.415Z,34.80
2018-05-07T16:25:36.921Z,33.40
2018-05-07T16:28:05.224Z,30.90
2018-05-07T16:30:32.762Z,30.80
2018-05-07T16:33:00.278Z,29.80
2018-05-07T16:35:27.827Z,29.00
2018-05-07T16:37:55.329Z,28.30
2018-05-07T16:40:22.872Z,27.70
2018-05-07T16:42:50.462Z,27.20
2018-05-07T16:45:17.989Z,26.70
2018-05-07T16:47:45.519Z,26.30
2018-05-07T16:50:13.019Z,26.00
2018-05-07T16:52:42.378Z,25.40
2018-05-07T16:55:09.895Z,25.40
2018-05-07T16:57:38.159Z,25.00
2018-05-07T17:00:05.692Z,25.00
2018-05-07T17:02:33.205Z,24.80
2018-05-07T17:05:00.773Z,24.60
2018-05-07T17:07:28.275Z,24.40
2018-05-07T17:09:55.803Z,24.30
2018-05-07T17:12:23.298Z,24.20
2018-05-07T17:14:50.825Z,24.00
2018-05-07T17:17:18.479Z,23.90
2018-05-07T17:19:46.001Z,23.80
2018-05-07T17:22:13.502Z,23.70
2018-05-07T17:24:41.066Z,23.70
2018-05-07T17:27:08.564Z,23.60
2018-05-07T17:29:36.100Z,23.50
2018-05-07T17:32:03.620Z,23.40
2018-05-07T17:34:31.162Z,23.30
2018-05-07T17:36:59.441Z,23.20
2018-05-07T17:39:27.749Z,23.20
2018-05-07T17:41:55.293Z,23.10
2018-05-07T17:44:34.600Z,23.10
2018-05-07T17:47:14.772Z,22.90
2018-05-07T17:49:43.043Z,22.80
2018-05-07T17:52:11.389Z,22.80
2018-05-07T17:54:38.911Z,22.80
2018-05-07T17:57:06.431Z,22.70
2018-05-07T17:59:34.692Z,22.70
2018-05-07T18:02:02.251Z,22.60
2018-05-07T18:04:29.751Z,22.60
2018-05-07T18:06:57.299Z,22.50
2018-05-07T18:09:24.807Z,22.40
2018-05-07T18:11:52.311Z,22.40
2018-05-07T18:14:20.629Z,22.30
2018-05-07T18:16:48.147Z,22.30
2018-05-07T18:19:16.567Z,22.10
2018-05-07T18:21:44.148Z,22.10
2018-05-07T18:24:11.679Z,22.10
2018-05-07T18:26:39.260Z,22.00
2018-05-07T18:29:06.793Z,21.90
2018-05-07T18:31:34.344Z,21.90
2018-05-07T18:34:01.830Z,21.80
2018-05-07T18:36:29.359Z,21.80
2018-05-07T18:38:56.871Z,21.70
2018-05-07T18:41:24.423Z,21.60
2018-05-07T18:43:51.986Z,21.50
2018-05-07T18:46:19.602Z,21.40
2018-05-07T18:48:47.143Z,21.30
2018-05-07T18:51:15.418Z,21.10
2018-05-07T18:53:43.684Z,21.10
2018-05-07T18:56:11.979Z,20.90
2018-05-07T18:58:39.469Z,20.90
2018-05-07T19:01:07.275Z,20.90
2018-05-07T19:03:35.553Z,20.70
2018-05-07T19:06:03.850Z,20.60
2018-05-07T19:08:31.378Z,20.60
2018-05-07T19:10:58.918Z,20.50
2018-05-07T19:13:26.418Z,20.40
2018-05-07T19:15:54.725Z,20.20
2018-05-07T19:18:22.234Z,20.20
2018-05-07T19:20:49.762Z,20.20
2018-05-07T19:23:17.306Z,20.20
2018-05-07T19:25:44.885Z,20.10
2018-05-07T19:28:12.437Z,20.00
2018-05-07T19:30:39.978Z,20.00
2018-05-07T19:33:07.487Z,19.90
2018-05-07T19:35:35.038Z,19.90
2018-05-07T19:38:02.579Z,19.90
2018-05-07T19:40:30.168Z,19.80
2018-05-07T19:42:58.432Z,19.70
2018-05-07T19:45:25.947Z,19.70
2018-05-07T19:47:53.558Z,19.70
2018-05-07T19:50:21.027Z,19.60
2018-05-07T19:52:48.568Z,19.60
2018-05-07T19:55:16.828Z,19.50
2018-05-07T19:57:44.375Z,19.40
2018-05-07T20:00:11.896Z,19.30
2018-05-07T20:02:39.438Z,19.20
2018-05-07T20:05:07.728Z,19.10
2018-05-07T20:07:36.029Z,19.10
2018-05-07T20:10:03.541Z,19.10
2018-05-07T20:12:31.096Z,19.10
2018-05-07T20:14:59.370Z,18.90
2018-05-07T20:17:27.041Z,18.90
2018-05-07T20:19:54.557Z,18.80
2018-05-07T20:22:22.315Z,18.80
2018-05-07T20:24:49.833Z,18.80
2018-05-07T20:27:18.100Z,18.70
2018-05-07T20:29:45.641Z,18.70
2018-05-07T20:32:13.143Z,18.60
2018-05-07T20:34:40.690Z,18.60
2018-05-07T20:37:08.977Z,18.50
2018-05-07T20:39:37.356Z,18.50
2018-05-07T20:42:05.634Z,18.50
2018-05-07T20:44:33.303Z,18.50
2018-05-07T20:47:00.838Z,18.40
2018-05-07T20:49:29.128Z,18.30
2018-05-07T20:51:57.728Z,18.20
2018-05-07T20:54:25.357Z,18.20
2018-05-07T20:56:52.868Z,18.20
2018-05-07T20:59:20.437Z,18.10
2018-05-07T21:01:47.929Z,18.10
2018-05-07T21:04:15.465Z,18.10
2018-05-07T21:06:42.954Z,18.00
2018-05-07T21:09:11.258Z,17.90
2018-05-07T21:11:38.769Z,17.90
2018-05-07T21:14:08.650Z,17.80
2018-05-07T21:16:36.140Z,17.80
2018-05-07T21:19:03.687Z,17.80
2018-05-07T21:21:31.182Z,17.70
2018-05-07T21:23:59.439Z,17.70
2018-05-07T21:26:27.746Z,17.60
2018-05-07T21:28:56.028Z,17.60
2018-05-07T21:31:23.602Z,17.50
2018-05-07T21:33:51.097Z,17.50
2018-05-07T21:36:18.635Z,17.50
2018-05-07T21:38:46.162Z,17.40
2018-05-07T21:41:14.595Z,17.40
2018-05-07T21:43:42.181Z,17.40
2018-05-07T21:46:09.636Z,17.30
2018-05-07T21:48:37.930Z,17.30
2018-05-07T21:51:06.193Z,17.30
2018-05-07T21:53:34.575Z,17.20
2018-05-07T21:56:02.067Z,17.20
2018-05-07T21:58:29.629Z,17.20
2018-05-07T22:00:57.122Z,17.20
2018-05-07T22:03:24.658Z,17.10
2018-05-07T22:05:52.160Z,17.10
2018-05-07T22:08:20.462Z,17.00
2018-05-07T22:10:48.144Z,17.00
2018-05-07T22:13:15.683Z,17.00
2018-05-07T22:15:43.175Z,16.90
2018-05-07T22:18:10.716Z,17.00
2018-05-07T22:20:38.211Z,16.90
2018-05-07T22:23:05.747Z,16.80
2018-05-07T22:25:33.260Z,16.80
2018-05-07T22:28:01.561Z,16.70
2018-05-07T22:30:29.066Z,16.70
2018-05-07T22:32:56.828Z,16.70
2018-05-07T22:35:24.328Z,16.70
2018-05-07T22:37:51.857Z,16.70
2018-05-07T22:40:19.363Z,16.60
2018-05-07T22:42:47.598Z,16.60
2018-05-07T22:45:15.851Z,16.50
2018-05-07T22:47:43.379Z,16.50
2018-05-07T22:50:10.861Z,16.50
2018-05-07T22:52:38.408Z,16.40
2018-05-07T22:55:07.398Z,16.40
2018-05-07T22:57:34.906Z,16.40
2018-05-07T23:00:03.206Z,16.30
2018-05-07T23:02:30.738Z,16.20
2018-05-07T23:04:58.288Z,16.20
2018-05-07T23:07:26.570Z,16.30
2018-05-07T23:09:54.971Z,16.20
2018-05-07T23:12:22.471Z,16.20
2018-05-07T23:14:50.019Z,16.20
2018-05-07T23:17:17.522Z,16.20
2018-05-07T23:19:45.128Z,16.20
2018-05-07T23:22:12.627Z,16.20
2018-05-07T23:24:40.169Z,16.10
2018-05-07T23:27:07.667Z,16.10
2018-05-07T23:29:35.967Z,16.00
2018-05-07T23:32:03.475Z,16.00
2018-05-07T23:34:31.024Z,16.00
2018-05-07T23:36:58.539Z,16.00
2018-05-07T23:39:26.075Z,16.00
2018-05-07T23:41:54.228Z,15.90
2018-05-07T23:44:21.776Z,15.90
2018-05-07T23:46:49.273Z,15.90
2018-05-07T23:49:16.819Z,15.80
2018-05-07T23:51:45.135Z,15.80
2018-05-07T23:54:12.668Z,15.80
2018-05-07T23:56:40.174Z,15.80
2018-05-07T23:59:07.727Z,15.70
